createdAt,value
2018-12-12T00:02:06.481Z,1.70
2018-12-12T00:04:41.269Z,1.70
2018-12-12T00:07:10.062Z,1.60
2018-12-12T00:09:44.105Z,1.60
2018-12-12T00:12:18.250Z,1.60
2018-12-12T00:14:52.603Z,1.60
2018-12-12T00:17:31.082Z,1.50
2018-12-12T00:20:06.181Z,1.50
2018-12-12T00:22:37.874Z,1.50
2018-12-12T00:25:11.878Z,1.50
2018-12-12T00:27:46.163Z,1.50
2018-12-12T00:30:20.703Z,1.40
2018-12-12T00:32:55.426Z,1.40
2018-12-12T00:35:29.801Z,1.40
2018-12-12T00:38:01.468Z,1.30
2018-12-12T00:40:33.704Z,1.40
2018-12-12T00:43:05.350Z,1.40
2018-12-12T00:45:39.862Z,1.40
2018-12-12T00:48:12.032Z,1.30
2018-12-12T00:50:44.436Z,1.30
2018-12-12T00:53:18.848Z,1.30
2018-12-12T00:55:53.405Z,1.30
2018-12-12T00:58:25.784Z,1.20
2018-12-12T01:00:57.686Z,1.20
2018-12-12T01:03:32.019Z,1.20
2018-12-12T01:06:06.206Z,1.10
2018-12-12T01:08:37.650Z,1.10
2018-12-12T01:11:15.234Z,1.10
2018-12-12T01:13:46.958Z,1.10
2018-12-12T01:16:18.954Z,1.10
2018-12-12T01:18:51.196Z,1.00
2018-12-12T01:21:23.401Z,1.00
2018-12-12T01:23:57.804Z,1.00
2018-12-12T01:26:29.832Z,1.00
2018-12-12T01:29:04.248Z,1.00
2018-12-12T01:31:38.358Z,1.10
2018-12-12T01:34:12.320Z,1.00
2018-12-12T01:36:48.188Z,0.90
2018-12-12T01:39:20.588Z,0.90
2018-12-12T01:41:54.976Z,0.80
2018-12-12T01:44:27.104Z,0.80
2018-12-12T01:47:01.650Z,0.80
2018-12-12T01:49:33.374Z,0.80
2018-12-12T01:52:05.858Z,0.70
2018-12-12T01:54:37.762Z,0.70
2018-12-12T01:57:09.884Z,0.70
2018-12-12T01:59:41.362Z,0.70
2018-12-12T02:02:12.871Z,0.70
2018-12-12T02:04:45.021Z,0.70
2018-12-12T02:07:17.507Z,0.70
2018-12-12T02:09:49.999Z,0.60
2018-12-12T02:12:22.006Z,0.60
2018-12-12T02:14:54.333Z,0.70
2018-12-12T02:17:26.677Z,0.70
2018-12-12T02:20:11.497Z,0.60
2018-12-12T02:22:46.232Z,0.60
2018-12-12T02:25:21.023Z,0.50
2018-12-12T02:27:53.631Z,0.50
2018-12-12T02:30:28.054Z,0.60
2018-12-12T02:32:59.830Z,0.50
2018-12-12T02:35:32.198Z,0.50
2018-12-12T02:38:04.402Z,0.50
2018-12-12T02:40:36.737Z,0.50
2018-12-12T02:43:09.031Z,0.50
2018-12-12T02:45:41.412Z,0.50
2018-12-12T02:48:15.482Z,0.50
2018-12-12T02:50:50.057Z,0.50
2018-12-12T02:53:21.963Z,0.50
2018-12-12T02:55:54.039Z,0.50
2018-12-12T02:58:27.912Z,0.40
2018-12-12T03:00:59.495Z,0.50
2018-12-12T03:03:35.062Z,0.40
2018-12-12T03:06:06.863Z,0.40
2018-12-12T03:08:36.528Z,0.40
2018-12-12T03:16:06.502Z,0.40
2018-12-12T03:23:39.151Z,0.30
2018-12-12T03:26:11.068Z,0.30
2018-12-12T03:28:43.451Z,0.30
2018-12-12T03:31:20.871Z,0.20
2018-12-12T03:33:54.322Z,0.30
2018-12-12T03:36:26.282Z,0.30
2018-12-12T03:39:00.816Z,0.20
2018-12-12T03:41:32.388Z,0.20
2018-12-12T03:44:05.448Z,0.20
2018-12-12T03:46:37.037Z,0.20
2018-12-12T03:49:09.322Z,0.10
2018-12-12T03:51:41.158Z,0.10
2018-12-12T03:54:13.425Z,0.20
2018-12-12T03:56:45.310Z,0.30
2018-12-12T03:59:17.580Z,0.30
2018-12-12T04:01:49.731Z,0.20
2018-12-12T04:04:22.338Z,0.20
2018-12-12T04:06:54.287Z,0.20
2018-12-12T04:09:26.579Z,0.20
2018-12-12T04:11:58.425Z,0.20
2018-12-12T04:14:30.593Z,0.20
2018-12-12T04:17:05.568Z,0.20
2018-12-12T04:19:37.127Z,0.30
2018-12-12T04:22:12.889Z,0.20
2018-12-12T04:27:16.766Z,0.20
2018-12-12T04:29:48.679Z,0.20
2018-12-12T04:32:20.684Z,0.20
2018-12-12T04:34:53.226Z,0.20
2018-12-12T04:37:23.852Z,0.20
2018-12-12T04:39:55.824Z,0.30
2018-12-12T04:42:27.320Z,0.30
2018-12-12T04:44:57.600Z,0.30
2018-12-12T04:47:30.096Z,0.20
2018-12-12T04:50:04.441Z,0.20
2018-12-12T04:52:38.455Z,0.10
2018-12-12T04:55:10.409Z,0.10
2018-12-12T04:57:42.388Z,0.00
2018-12-12T05:00:14.663Z,0.00
2018-12-12T05:02:47.223Z,0.00
2018-12-12T05:05:19.194Z,0.00
2018-12-12T05:07:49.339Z,-0.10
2018-12-12T05:10:21.567Z,0.00
2018-12-12T05:12:53.896Z,-0.10
2018-12-12T05:15:28.205Z,-0.10
2018-12-12T05:18:02.295Z,-0.10
2018-12-12T05:20:34.099Z,-0.20
2018-12-12T05:23:06.286Z,-0.20
2018-12-12T05:25:37.701Z,-0.20
2018-12-12T05:28:10.086Z,-0.20
2018-12-12T05:30:44.797Z,-0.20
2018-12-12T05:33:16.468Z,-0.10
2018-12-12T05:35:48.837Z,-0.10
2018-12-12T05:38:23.782Z,-0.10
2018-12-12T05:40:58.549Z,-0.10
2018-12-12T05:43:30.169Z,0.00
2018-12-12T05:46:02.645Z,0.00
2018-12-12T05:48:35.079Z,-0.10
2018-12-12T05:51:07.141Z,-0.10
2018-12-12T05:53:40.642Z,-0.10
2018-12-12T05:56:14.282Z,0.00
2018-12-12T05:58:46.389Z,0.00
2018-12-12T06:01:18.479Z,0.00
2018-12-12T06:03:50.709Z,-0.10
2018-12-12T06:06:23.574Z,-0.10
2018-12-12T06:08:57.609Z,-0.10
2018-12-12T06:11:32.129Z,-0.10
2018-12-12T06:14:04.640Z,-0.10
2018-12-12T06:16:39.733Z,-0.10
2018-12-12T06:19:12.379Z,-0.20
2018-12-12T06:21:46.408Z,-0.20
2018-12-12T06:24:15.161Z,-0.20
2018-12-12T06:26:44.837Z,-0.20
2018-12-12T06:29:19.470Z,-0.20
2018-12-12T06:31:52.412Z,-0.20
2018-12-12T06:34:24.445Z,-0.10
2018-12-12T06:36:58.961Z,-0.10
2018-12-12T06:42:18.605Z,-0.10
2018-12-12T06:44:53.694Z,0.00
2018-12-12T06:47:26.451Z,0.00
2018-12-12T06:49:58.654Z,0.10
2018-12-12T06:52:31.156Z,0.10
2018-12-12T06:55:02.834Z,0.20
2018-12-12T06:57:37.833Z,0.20
2018-12-12T07:00:12.386Z,0.20
2018-12-12T07:02:47.082Z,0.20
2018-12-12T07:05:19.500Z,0.20
2018-12-12T07:07:53.612Z,0.20
2018-12-12T07:10:28.095Z,0.20
2018-12-12T07:13:02.022Z,0.20
2018-12-12T07:15:36.161Z,0.30
2018-12-12T07:18:10.304Z,0.30
2018-12-12T07:20:44.446Z,0.40
2018-12-12T07:23:14.528Z,0.40
2018-12-12T07:25:46.987Z,0.40
2018-12-12T07:28:18.850Z,0.40
2018-12-12T07:30:51.372Z,0.50
2018-12-12T07:33:25.830Z,0.50
2018-12-12T07:35:59.660Z,0.60
2018-12-12T07:38:30.162Z,0.60
2018-12-12T07:41:02.554Z,0.60
2018-12-12T07:43:37.011Z,0.70
2018-12-12T07:46:08.958Z,0.70
2018-12-12T07:48:41.207Z,0.70
2018-12-12T07:51:13.421Z,0.70
2018-12-12T07:53:45.435Z,0.70
2018-12-12T07:56:17.994Z,0.70
2018-12-12T07:58:50.100Z,0.70
2018-12-12T08:01:25.207Z,0.80
2018-12-12T08:03:57.453Z,0.80
2018-12-12T08:06:29.603Z,0.90
2018-12-12T08:09:02.035Z,0.90
2018-12-12T08:11:33.839Z,0.90
2018-12-12T08:14:05.777Z,0.90
2018-12-12T08:16:38.672Z,0.90
2018-12-12T08:19:19.395Z,1.00
2018-12-12T08:21:53.858Z,0.90
2018-12-12T08:24:31.722Z,0.90
2018-12-12T08:27:04.165Z,0.90
2018-12-12T08:29:38.477Z,0.90
2018-12-12T08:32:12.689Z,0.90
2018-12-12T08:34:46.586Z,1.00
2018-12-12T08:37:20.473Z,1.00
2018-12-12T08:39:54.783Z,1.00
2018-12-12T08:42:29.338Z,1.10
2018-12-12T08:45:03.581Z,1.20
2018-12-12T08:47:38.008Z,1.20
2018-12-12T08:50:10.117Z,1.30
2018-12-12T08:52:42.585Z,1.30
2018-12-12T08:55:17.709Z,1.40
2018-12-12T08:57:48.585Z,1.40
2018-12-12T09:00:21.141Z,1.50
2018-12-12T09:02:53.377Z,1.40
2018-12-12T09:05:25.855Z,1.50
2018-12-12T09:07:57.947Z,1.50
2018-12-12T09:10:33.050Z,1.40
2018-12-12T09:13:05.466Z,1.40
2018-12-12T09:15:40.156Z,1.50
2018-12-12T09:18:11.834Z,1.50
2018-12-12T09:20:43.914Z,1.60
2018-12-12T09:23:17.817Z,1.60
2018-12-12T09:25:51.973Z,1.60
2018-12-12T09:28:24.102Z,1.70
2018-12-12T09:30:56.182Z,1.80
2018-12-12T09:33:28.339Z,1.90
2018-12-12T09:36:03.114Z,1.90
2018-12-12T09:38:35.044Z,2.00
2018-12-12T09:41:09.269Z,2.00
2018-12-12T09:48:42.263Z,2.10
2018-12-12T09:51:14.778Z,2.20
2018-12-12T09:58:44.872Z,2.30
2018-12-12T10:08:48.110Z,2.40
2018-12-12T10:11:22.739Z,2.50
2018-12-12T10:13:56.770Z,2.50
2018-12-12T10:16:29.526Z,2.50
2018-12-12T10:19:01.161Z,2.60
2018-12-12T10:21:33.089Z,2.60
2018-12-12T10:24:05.623Z,2.60
2018-12-12T10:26:37.588Z,2.70
2018-12-12T10:29:10.046Z,2.70
2018-12-12T10:31:41.861Z,2.80
2018-12-12T10:34:13.927Z,2.90
2018-12-12T10:36:46.136Z,2.90
2018-12-12T10:39:18.569Z,3.00
2018-12-12T10:41:50.405Z,3.00
2018-12-12T10:44:21.950Z,3.00
2018-12-12T10:46:54.188Z,3.10
2018-12-12T10:49:28.089Z,3.10
2018-12-12T10:51:59.902Z,3.10
2018-12-12T10:54:34.574Z,3.10
2018-12-12T10:57:08.518Z,3.20
2018-12-12T10:59:42.614Z,3.20
2018-12-12T11:02:22.612Z,3.30
2018-12-12T11:04:56.915Z,3.30
2018-12-12T11:07:31.424Z,3.30
2018-12-12T11:10:04.709Z,3.30
2018-12-12T11:12:36.462Z,3.30
2018-12-12T11:17:43.962Z,3.40
2018-12-12T11:22:44.520Z,3.50
2018-12-12T11:25:16.830Z,3.50
2018-12-12T11:27:49.150Z,3.60
2018-12-12T11:30:21.425Z,3.60
2018-12-12T11:32:53.130Z,3.70
2018-12-12T11:35:26.992Z,3.70
2018-12-12T11:38:01.182Z,3.80
2018-12-12T11:40:32.958Z,3.80
2018-12-12T11:43:07.532Z,3.90
2018-12-12T11:45:39.474Z,3.90
2018-12-12T11:48:11.781Z,4.00
2018-12-12T11:50:43.806Z,4.10
2018-12-12T11:53:18.327Z,4.20
2018-12-12T11:55:52.644Z,4.30
2018-12-12T11:58:27.115Z,4.40
2018-12-12T12:00:59.027Z,4.50
2018-12-12T12:03:30.889Z,4.50
2018-12-12T12:06:05.589Z,4.60
2018-12-12T12:08:37.122Z,4.60
2018-12-12T12:11:12.019Z,4.70
2018-12-12T12:13:45.987Z,4.70
2018-12-12T12:16:17.616Z,4.70
2018-12-12T12:18:49.937Z,4.80
2018-12-12T12:21:22.176Z,4.80
2018-12-12T12:26:24.297Z,4.90
2018-12-12T12:28:58.868Z,4.90
2018-12-12T12:31:30.641Z,4.90
2018-12-12T12:36:36.399Z,4.90
2018-12-12T12:39:08.585Z,4.90
2018-12-12T12:41:40.290Z,4.90
2018-12-12T12:44:14.965Z,4.90
2018-12-12T12:46:48.970Z,4.90
2018-12-12T12:49:20.861Z,4.90
2018-12-12T12:51:52.695Z,4.90
2018-12-12T12:54:24.352Z,4.90
2018-12-12T12:56:55.927Z,4.90
2018-12-12T12:59:28.380Z,4.90
2018-12-12T13:02:01.021Z,5.00
2018-12-12T13:04:32.861Z,5.00
2018-12-12T13:07:07.638Z,5.00
2018-12-12T13:09:41.713Z,5.00
2018-12-12T13:12:13.623Z,5.00
2018-12-12T13:14:45.637Z,5.00
2018-12-12T13:17:17.858Z,5.00
2018-12-12T13:19:52.546Z,5.00
2018-12-12T13:22:24.740Z,5.00
2018-12-12T13:24:57.092Z,4.90
2018-12-12T13:27:29.663Z,4.90
2018-12-12T13:30:04.449Z,4.90
2018-12-12T13:32:36.723Z,4.90
2018-12-12T13:35:09.145Z,4.90
2018-12-12T13:42:41.725Z,4.90
2018-12-12T13:45:16.188Z,4.90
2018-12-12T13:47:50.277Z,4.90
2018-12-12T13:50:21.747Z,4.80
2018-12-12T13:52:54.392Z,4.90
2018-12-12T13:55:26.339Z,4.90
2018-12-12T13:57:58.495Z,4.90
2018-12-12T14:00:30.469Z,4.90
2018-12-12T14:03:03.573Z,4.90
2018-12-12T14:05:36.137Z,4.90
2018-12-12T14:08:08.376Z,4.90
2018-12-12T14:10:40.761Z,4.90
2018-12-12T14:13:27.958Z,4.90
2018-12-12T14:16:00.350Z,4.90
2018-12-12T14:18:34.888Z,4.90
2018-12-12T14:21:06.772Z,4.90
2018-12-12T14:23:39.204Z,4.80
2018-12-12T14:26:10.980Z,4.80
2018-12-12T14:28:43.154Z,4.80
2018-12-12T14:31:17.474Z,4.80
2018-12-12T14:33:54.654Z,4.80
2018-12-12T14:36:30.753Z,4.80
2018-12-12T14:39:06.009Z,4.70
2018-12-12T14:41:38.790Z,4.80
2018-12-12T14:44:10.927Z,4.70
2018-12-12T14:46:43.124Z,4.70
2018-12-12T14:49:17.698Z,4.70
2018-12-12T14:51:56.996Z,4.70
2018-12-12T14:54:33.603Z,4.70
2018-12-12T14:57:10.658Z,4.70
2018-12-12T14:59:53.913Z,4.60
2018-12-12T15:02:25.948Z,4.60
2018-12-12T15:05:06.259Z,4.60
2018-12-12T15:07:49.363Z,4.50
2018-12-12T15:10:22.457Z,4.50
2018-12-12T15:12:56.927Z,4.50
2018-12-12T15:15:34.349Z,4.50
2018-12-12T15:18:07.421Z,4.50
2018-12-12T15:20:40.118Z,4.40
2018-12-12T15:23:13.025Z,4.40
2018-12-12T15:25:45.432Z,4.40
2018-12-12T15:28:18.045Z,4.40
2018-12-12T15:30:50.430Z,4.40
2018-12-12T15:33:22.741Z,4.40
2018-12-12T15:35:54.887Z,4.30
2018-12-12T15:38:28.141Z,4.40
2018-12-12T15:41:02.304Z,4.30
2018-12-12T15:43:36.517Z,4.30
2018-12-12T15:46:10.815Z,4.30
2018-12-12T15:48:45.209Z,4.40
2018-12-12T15:51:19.548Z,4.40
2018-12-12T15:53:51.867Z,4.40
2018-12-12T15:56:25.789Z,4.40
2018-12-12T15:59:01.049Z,4.40
2018-12-12T16:01:32.987Z,4.40
2018-12-12T16:04:05.053Z,4.40
2018-12-12T16:06:37.515Z,4.30
2018-12-12T16:09:09.671Z,4.30
2018-12-12T16:11:41.733Z,4.30
2018-12-12T16:14:17.802Z,4.40
2018-12-12T16:16:53.501Z,4.40
2018-12-12T16:19:32.501Z,4.50
2018-12-12T16:22:04.903Z,4.50
2018-12-12T16:24:37.160Z,4.50
2018-12-12T16:27:09.595Z,4.60
2018-12-12T16:29:41.814Z,4.50
2018-12-12T16:32:15.097Z,4.50
2018-12-12T16:34:55.809Z,4.50
2018-12-12T16:37:28.330Z,4.50
2018-12-12T16:40:00.928Z,4.40
2018-12-12T16:42:33.076Z,4.40
2018-12-12T16:45:08.104Z,4.50
2018-12-12T16:47:40.598Z,4.50
2018-12-12T16:50:19.570Z,4.50
2018-12-12T16:53:01.990Z,4.50
2018-12-12T16:55:34.294Z,4.40
2018-12-12T16:58:06.550Z,4.30
2018-12-12T17:00:41.034Z,4.30
2018-12-12T17:03:16.916Z,4.30
2018-12-12T17:05:52.038Z,4.30
2018-12-12T17:08:27.221Z,4.20
2018-12-12T17:10:59.439Z,4.20
2018-12-12T17:13:31.137Z,4.20
2018-12-12T17:16:03.523Z,4.20
2018-12-12T17:18:38.561Z,4.20
2018-12-12T17:21:11.828Z,4.10
2018-12-12T17:23:44.757Z,4.10
2018-12-12T17:26:16.897Z,4.10
2018-12-12T17:28:49.265Z,4.10
2018-12-12T17:31:21.249Z,4.00
2018-12-12T17:33:54.124Z,4.10
2018-12-12T17:36:25.774Z,4.10
2018-12-12T17:38:57.378Z,4.10
2018-12-12T17:41:29.869Z,4.10
2018-12-12T17:44:02.673Z,4.10
2018-12-12T17:46:34.655Z,4.10
2018-12-12T17:49:06.901Z,4.00
2018-12-12T17:51:39.034Z,4.00
2018-12-12T17:54:11.307Z,4.10
2018-12-12T17:56:43.303Z,4.10
2018-12-12T17:59:15.413Z,4.00
2018-12-12T18:04:17.503Z,4.00
2018-12-12T18:11:50.853Z,4.00
2018-12-12T18:26:49.111Z,4.00
2018-12-12T18:34:23.719Z,3.90
2018-12-12T18:36:55.938Z,3.90
2018-12-12T18:39:30.612Z,3.90
2018-12-12T18:42:03.237Z,3.90
2018-12-12T18:44:38.177Z,3.80
2018-12-12T18:47:09.877Z,3.80
2018-12-12T18:49:42.882Z,3.90
2018-12-12T18:52:17.834Z,3.80
2018-12-12T18:54:50.038Z,3.80
2018-12-12T18:57:22.085Z,3.80
2018-12-12T18:59:54.691Z,3.80
2018-12-12T19:02:26.774Z,3.80
2018-12-12T19:05:00.012Z,3.80
2018-12-12T19:07:33.076Z,3.80
2018-12-12T19:10:05.732Z,3.70
2018-12-12T19:12:40.419Z,3.80
2018-12-12T19:15:12.684Z,3.70
2018-12-12T19:17:49.731Z,3.80
2018-12-12T19:20:22.093Z,3.80
2018-12-12T19:22:57.106Z,3.70
2018-12-12T19:25:29.997Z,3.80
2018-12-12T19:28:03.714Z,3.80
2018-12-12T19:30:38.820Z,3.70
2018-12-12T19:33:16.430Z,3.70
2018-12-12T19:35:51.133Z,3.70
2018-12-12T19:38:24.539Z,3.70
2018-12-12T19:41:00.277Z,3.70
2018-12-12T19:43:33.366Z,3.70
2018-12-12T19:46:10.228Z,3.60
2018-12-12T19:48:45.407Z,3.70
2018-12-12T19:51:18.258Z,3.60
2018-12-12T19:53:50.293Z,3.60
2018-12-12T19:56:22.721Z,3.60
2018-12-12T19:58:55.392Z,3.60
2018-12-12T20:01:29.238Z,3.60
2018-12-12T20:04:01.205Z,3.60
2018-12-12T20:06:33.442Z,3.60
2018-12-12T20:09:07.695Z,3.60
2018-12-12T20:11:39.823Z,3.60
2018-12-12T20:14:13.848Z,3.60
2018-12-12T20:16:48.363Z,3.50
2018-12-12T20:19:20.453Z,3.50
2018-12-12T20:21:55.267Z,3.50
2018-12-12T20:24:30.638Z,3.50
2018-12-12T20:27:08.349Z,3.40
2018-12-12T20:29:40.973Z,3.40
2018-12-12T20:32:15.428Z,3.40
2018-12-12T20:34:51.788Z,3.40
2018-12-12T20:37:28.032Z,3.30
2018-12-12T20:40:04.456Z,3.30
2018-12-12T20:42:40.903Z,3.30
2018-12-12T20:45:16.041Z,3.30
2018-12-12T20:47:48.197Z,3.20
2018-12-12T20:50:22.747Z,3.20
2018-12-12T20:52:56.553Z,3.10
2018-12-12T20:55:31.117Z,3.10
2018-12-12T20:58:03.732Z,3.00
2018-12-12T21:00:36.322Z,2.90
2018-12-12T21:03:17.114Z,2.90
2018-12-12T21:05:54.495Z,2.90
2018-12-12T21:08:26.597Z,2.80
2018-12-12T21:10:59.511Z,2.80
2018-12-12T21:13:35.969Z,2.70
2018-12-12T21:16:09.456Z,2.70
2018-12-12T21:18:43.143Z,2.60
2018-12-12T21:21:16.404Z,2.60
2018-12-12T21:23:57.373Z,2.50
2018-12-12T21:26:31.560Z,2.50
2018-12-12T21:29:09.189Z,2.40
2018-12-12T21:31:47.602Z,2.40
2018-12-12T21:34:22.955Z,2.40
2018-12-12T21:36:56.226Z,2.30
2018-12-12T21:39:31.719Z,2.30
2018-12-12T21:42:15.257Z,2.20
2018-12-12T21:44:57.992Z,2.20
2018-12-12T21:47:37.816Z,2.20
2018-12-12T21:50:12.962Z,2.10
2018-12-12T21:52:47.602Z,2.10
2018-12-12T21:55:22.220Z,2.10
2018-12-12T21:58:05.753Z,2.00
2018-12-12T22:00:38.219Z,2.00
2018-12-12T22:03:13.039Z,2.00
2018-12-12T22:05:51.055Z,1.90
2018-12-12T22:08:26.427Z,1.90
2018-12-12T22:10:58.131Z,1.90
2018-12-12T22:13:32.518Z,1.80
2018-12-12T22:16:04.747Z,1.80
2018-12-12T22:18:37.541Z,1.80
2018-12-12T22:21:14.108Z,1.80
2018-12-12T22:23:48.545Z,1.80
2018-12-12T22:26:21.433Z,1.70
2018-12-12T22:28:53.635Z,1.70
2018-12-12T22:31:26.211Z,1.70
2018-12-12T22:33:58.263Z,1.70
2018-12-12T22:36:30.697Z,1.70
2018-12-12T22:39:07.801Z,1.70
2018-12-12T22:41:40.081Z,1.60
2018-12-12T22:44:14.518Z,1.60
2018-12-12T22:46:46.064Z,1.60
2018-12-12T22:49:17.635Z,1.50
2018-12-12T22:51:52.340Z,1.50
2018-12-12T22:54:24.316Z,1.50
2018-12-12T22:56:56.823Z,1.50
2018-12-12T22:59:31.686Z,1.50
2018-12-12T23:02:03.644Z,1.50
2018-12-12T23:04:37.702Z,1.40
2018-12-12T23:07:12.044Z,1.40
2018-12-12T23:09:46.247Z,1.40
2018-12-12T23:12:17.849Z,1.30
2018-12-12T23:14:50.483Z,1.30
2018-12-12T23:17:22.261Z,1.30
2018-12-12T23:19:54.342Z,1.30
2018-12-12T23:22:28.303Z,1.30
2018-12-12T23:25:03.243Z,1.30
2018-12-12T23:27:35.526Z,1.30
2018-12-12T23:30:10.419Z,1.30
2018-12-12T23:32:42.083Z,1.30
2018-12-12T23:35:16.724Z,1.20
2018-12-12T23:37:48.399Z,1.20
2018-12-12T23:40:23.272Z,1.20
2018-12-12T23:42:57.750Z,1.20
2018-12-12T23:45:30.423Z,1.20
2018-12-12T23:48:04.982Z,1.20
2018-12-12T23:50:37.098Z,1.20
2018-12-12T23:53:09.065Z,1.30
2018-12-12T23:55:41.489Z,1.30
2018-12-12T23:58:13.777Z,1.20
